Time;durP1;ratioP1;P1;durP2;ratioP2;P2;SDS_P1;SDS_P2;PMS_P1;PMS_P2;Temp;Humidity;BMP_temperature;BMP_pressure;BME280_temperature;BME280_humidity;BME280_pressure;Samples;Min_cycle;Max_cycle;Signal;HPM_P1;HPM_P2
2022/01/21 00:01:09;;;;;;;13.73;9.80;;;;;;;7.85;42.46;94335.09;5049891;28;20481;-77
2022/01/21 00:03:35;;;;;;;11.87;7.83;;;;;;;8.00;41.98;94345.47;5049953;28;20631;-78
2022/01/21 00:06:02;;;;;;;17.40;10.47;;;;;;;7.99;42.30;94331.66;5050543;28;20414;-78
2022/01/21 00:08:27;;;;;;;14.43;9.77;;;;;;;8.36;40.75;94348.00;5050612;28;20468;-78
2022/01/21 00:10:53;;;;;;;16.43;10.47;;;;;;;7.87;42.03;94342.72;5050678;28;20408;-78
2022/01/21 00:13:34;;;;;;;13.57;9.53;;;;;;;8.35;41.67;94345.59;5050741;28;20183;-78
2022/01/21 00:16:09;;;;;;;15.20;10.30;;;;;;;8.27;41.87;94351.75;5050225;28;20198;-79
2022/01/21 00:18:37;;;;;;;14.07;9.87;;;;;;;7.92;42.40;94356.03;5033633;28;20406;-80
2022/01/21 00:32:01;;;;;;;13.00;8.83;;;;;;;7.86;44.26;94356.78;5050949;28;20449;-79
2022/01/21 00:34:26;;;;;;;3.37;3.10;;;;;;;7.94;49.37;94360.03;5050832;28;22365;-79
2022/01/21 00:36:52;;;;;;;3.03;2.83;;;;;;;7.85;51.24;94368.97;5050678;28;20186;-78
2022/01/21 00:39:22;;;;;;;1.57;1.47;;;;;;;7.29;53.95;94361.72;5032998;28;20176;-78
2022/01/21 00:42:04;;;;;;;6.23;1.60;;;;;;;7.47;54.61;94357.91;5031643;28;20221;-79
2022/01/21 00:44:30;;;;;;;3.37;2.00;;;;;;;7.24;57.16;94364.84;5031957;28;20410;-79
2022/01/21 00:46:55;;;;;;;2.03;1.93;;;;;;;7.11;58.35;94366.47;5049675;28;20417;-79
2022/01/21 00:49:21;;;;;;;2.80;2.10;;;;;;;7.12;59.67;94374.09;5030764;28;20196;-78
2022/01/21 00:51:47;;;;;;;4.60;2.40;;;;;;;6.53;62.51;94371.44;5049514;28;20186;-79
2022/01/21 00:54:15;;;;;;;1.80;1.70;;;;;;;6.51;62.77;94383.81;5049081;28;20186;-78
2022/01/21 00:56:41;;;;;;;2.70;2.40;;;;;;;6.25;63.53;94374.59;5031249;28;21031;-79
2022/01/21 00:59:07;;;;;;;1.97;1.80;;;;;;;6.59;62.37;94396.72;5050558;28;20521;-78
2022/01/21 01:01:32;;;;;;;2.63;2.43;;;;;;;6.02;64.10;94382.38;5052344;28;20178;-79
2022/01/21 01:03:58;;;;;;;4.50;2.80;;;;;;;5.87;64.89;94390.88;5048906;28;20182;-79
2022/01/21 01:06:24;;;;;;;2.93;2.07;;;;;;;6.02;64.61;94401.38;5048445;28;20175;-79
2022/01/21 01:08:51;;;;;;;7.20;3.37;;;;;;;5.75;65.65;94396.63;5034404;28;20454;-79
2022/01/21 01:11:24;;;;;;;2.80;1.90;;;;;;;5.99;65.47;94391.31;5052286;28;20159;-79
2022/01/21 01:22:01;;;;;;;5.90;3.07;;;;;;;6.45;63.10;94388.72;5022993;28;20482;-78
2022/01/21 01:30:01;;;;;;;3.30;2.93;;;;;;;6.25;62.43;94379.78;5030652;28;20571;-78
2022/01/21 01:32:29;;;;;;;4.20;3.70;;;;;;;6.19;63.70;94390.88;5029224;28;20406;-78
2022/01/21 01:34:54;;;;;;;2.90;2.70;;;;;;;6.58;62.54;94374.31;5016042;28;20491;-78
2022/01/21 01:37:35;;;;;;;3.83;3.47;;;;;;;7.01;61.12;94370.16;5011220;28;20412;-79
2022/01/21 01:40:15;;;;;;;3.70;3.13;;;;;;;6.69;62.18;94373.09;5008870;28;20176;-79
2022/01/21 01:51:07;;;;;;;4.30;3.30;;;;;;;6.03;63.52;94365.81;5007278;28;20550;-78
2022/01/21 01:53:40;;;;;;;4.70;4.40;;;;;;;6.67;61.56;94370.66;5008080;28;20408;-76
2022/01/21 01:56:10;;;;;;;4.33;4.00;;;;;;;6.92;60.93;94375.63;5007880;28;20443;-79
2022/01/21 01:58:37;;;;;;;4.27;3.97;;;;;;;5.74;64.45;94377.66;5006419;28;20456;-78
2022/01/21 02:01:10;;;;;;;7.30;3.80;;;;;;;6.02;64.16;94390.97;5024204;28;20485;-78
2022/01/21 02:03:54;;;;;;;6.30;3.97;;;;;;;7.03;61.62;94388.97;5027541;28;20391;-78
2022/01/21 02:06:20;;;;;;;5.33;3.60;;;;;;;6.42;63.00;94396.84;5027272;28;20450;-77
2022/01/21 02:08:46;;;;;;;5.30;3.80;;;;;;;6.94;62.13;94397.06;5027135;28;20455;-78
2022/01/21 02:11:12;;;;;;;6.70;5.23;;;;;;;6.47;64.04;94398.94;5027202;28;20630;-77
2022/01/21 02:13:47;;;;;;;6.80;4.67;;;;;;;6.26;64.63;94394.41;5012851;28;20187;-79
2022/01/21 02:21:42;;;;;;;5.60;5.10;;;;;;;6.87;63.94;94396.13;5022671;28;20762;-79
2022/01/21 02:24:13;;;;;;;5.73;4.53;;;;;;;7.09;62.96;94397.06;5009035;28;20489;-78
2022/01/21 02:26:39;;;;;;;7.00;4.90;;;;;;;7.07;63.51;94399.84;5041877;28;20907;-79
2022/01/21 02:29:05;;;;;;;4.80;4.30;;;;;;;7.10;63.21;94399.50;5029199;28;20450;-78
2022/01/21 02:31:33;;;;;;;5.80;4.83;;;;;;;6.41;65.03;94404.81;5046867;28;20975;-79
2022/01/21 02:33:59;;;;;;;5.80;5.30;;;;;;;6.34;65.27;94404.72;5046702;28;20414;-79
2022/01/21 02:36:26;;;;;;;9.10;6.53;;;;;;;6.37;65.75;94413.94;5046933;28;20411;-78
2022/01/21 02:38:52;;;;;;;7.53;6.40;;;;;;;6.07;66.43;94408.66;5046560;28;20398;-79
2022/01/21 02:41:18;;;;;;;7.03;6.33;;;;;;;6.52;65.52;94425.19;5046808;28;20478;-79
2022/01/21 02:43:43;;;;;;;8.33;7.33;;;;;;;6.35;66.00;94428.91;5046675;28;20225;-79
2022/01/21 02:46:10;;;;;;;8.40;6.27;;;;;;;5.90;67.37;94431.28;5028358;28;20187;-78
2022/01/21 02:48:39;;;;;;;5.03;4.67;;;;;;;5.46;68.67;94435.22;5046374;28;20210;-78
2022/01/21 02:51:07;;;;;;;8.23;7.20;;;;;;;5.81;68.17;94430.50;5046709;28;20418;-79
2022/01/21 02:54:17;;;;;;;7.90;7.20;;;;;;;6.22;66.78;94435.50;5046550;28;20410;-79
2022/01/21 02:56:23;;;;;;;7.87;7.27;;;;;;;6.40;66.29;94443.00;5040856;28;20469;-78
2022/01/21 02:58:49;;;;;;;9.30;6.67;;;;;;;6.91;64.56;94429.44;5045876;28;20463;-78
2022/01/21 03:01:16;;;;;;;9.20;7.47;;;;;;;6.60;65.03;94435.56;5028115;28;20206;-79
2022/01/21 03:03:44;;;;;;;7.47;6.67;;;;;;;6.42;65.92;94443.63;5046220;28;20239;-78
2022/01/21 03:06:10;;;;;;;8.50;7.70;;;;;;;6.04;67.30;94435.75;5045970;28;20427;-77
2022/01/21 03:08:36;;;;;;;9.17;8.27;;;;;;;6.18;66.45;94442.00;5045812;28;20518;-78
2022/01/21 03:11:01;;;;;;;8.70;7.93;;;;;;;6.28;66.49;94439.22;5045927;28;20410;-78
2022/01/21 03:13:27;;;;;;;7.53;6.83;;;;;;;6.05;67.11;94433.97;5045690;28;20194;-78
2022/01/21 03:15:53;;;;;;;9.43;6.90;;;;;;;5.96;67.41;94437.63;5046089;28;20175;-78
2022/01/21 03:18:19;;;;;;;9.33;7.43;;;;;;;5.28;69.62;94445.78;5045545;28;20183;-79
2022/01/21 03:20:45;;;;;;;7.20;6.33;;;;;;;5.82;68.70;94446.88;5040955;28;20501;-76
2022/01/21 03:23:17;;;;;;;6.70;6.00;;;;;;;5.27;69.83;94439.00;5025900;28;20430;-78
2022/01/21 03:25:46;;;;;;;5.67;4.90;;;;;;;5.54;69.24;94444.75;5025206;28;20975;-78
2022/01/21 03:28:12;;;;;;;4.40;3.90;;;;;;;5.63;68.34;94442.91;5025253;28;20455;-77
2022/01/21 03:30:38;;;;;;;3.30;3.07;;;;;;;5.19;70.07;94446.00;5025497;28;20430;-79
2022/01/21 03:33:04;;;;;;;2.57;2.40;;;;;;;5.13;70.51;94460.44;5025488;28;20906;-79
2022/01/21 03:35:30;;;;;;;1.60;1.50;;;;;;;4.62;71.93;94465.00;5024260;28;20430;-79
2022/01/21 03:37:56;;;;;;;1.67;1.57;;;;;;;5.12;70.77;94471.75;5025971;28;20651;-78
2022/01/21 03:40:21;;;;;;;1.13;1.13;;;;;;;5.31;69.75;94480.97;5024364;28;20434;-79
2022/01/21 03:42:47;;;;;;;1.17;1.17;;;;;;;4.57;72.03;94473.28;5024528;28;20203;-79
2022/01/21 03:45:13;;;;;;;1.23;1.20;;;;;;;4.92;71.30;94486.06;5025935;28;20184;-79
2022/01/21 03:47:39;;;;;;;1.37;1.27;;;;;;;5.45;69.99;94482.88;5025625;28;20284;-80
2022/01/21 03:50:22;;;;;;;1.43;1.13;;;;;;;4.68;71.54;94478.13;5025605;28;20422;-79
2022/01/21 03:52:47;;;;;;;1.13;1.03;;;;;;;4.91;70.03;94480.06;5024271;28;20411;-79
2022/01/21 03:55:13;;;;;;;1.23;1.00;;;;;;;4.98;69.81;94486.22;5023677;28;20475;-79
2022/01/21 03:57:38;;;;;;;0.97;0.97;;;;;;;5.67;67.95;94477.94;5025673;28;20168;-79
2022/01/21 04:00:07;;;;;;;1.03;1.03;;;;;;;5.43;68.38;94489.22;5025924;28;20239;-82
2022/01/21 04:02:32;;;;;;;0.90;0.90;;;;;;;5.31;68.60;94493.13;5025355;28;20164;-81
2022/01/21 04:04:57;;;;;;;1.30;1.30;;;;;;;5.33;68.44;94480.81;5026893;28;20431;-81
2022/01/21 04:07:23;;;;;;;1.30;1.30;;;;;;;5.25;68.50;94492.84;5027768;28;20180;-80
2022/01/21 04:09:48;;;;;;;0.90;0.90;;;;;;;4.73;70.23;94485.41;5027150;28;20240;-80
2022/01/21 04:12:14;;;;;;;1.20;1.10;;;;;;;5.28;68.63;94494.28;5026567;28;20172;-79
2022/01/21 04:14:41;;;;;;;1.50;1.40;;;;;;;5.62;67.71;94495.81;5028618;28;20256;-79
2022/01/21 04:17:07;;;;;;;1.30;1.20;;;;;;;5.66;67.44;94503.09;5029881;28;20248;-79
2022/01/21 04:19:33;;;;;;;1.43;1.33;;;;;;;5.75;66.62;94506.47;5027560;28;20445;-78
2022/01/21 04:21:59;;;;;;;1.30;1.20;;;;;;;5.11;68.58;94506.47;5026089;28;20180;-80
2022/01/21 04:24:25;;;;;;;1.73;1.03;;;;;;;5.38;67.77;94509.66;5027377;28;20481;-79
2022/01/21 04:26:50;;;;;;;1.30;1.20;;;;;;;5.13;68.83;94503.72;5026685;28;20253;-79
2022/01/21 04:29:16;;;;;;;1.73;1.40;;;;;;;4.76;69.80;94518.81;5027154;28;20215;-80
2022/01/21 04:31:41;;;;;;;1.47;1.37;;;;;;;5.17;68.49;94526.56;5042940;28;20269;-80
2022/01/21 04:34:07;;;;;;;2.40;1.77;;;;;;;4.99;70.50;94528.50;5025228;28;20188;-79
2022/01/21 04:36:34;;;;;;;3.00;1.73;;;;;;;5.15;69.30;94533.69;5027803;28;20188;-79
2022/01/21 04:39:01;;;;;;;1.07;1.07;;;;;;;4.86;69.90;94536.78;5029635;28;20179;-80
2022/01/21 04:49:26;;;;;;;2.20;1.70;;;;;;;4.82;69.88;94538.88;5030304;28;20801;-80
2022/01/21 04:52:03;;;;;;;1.87;1.77;;;;;;;4.73;70.72;94542.44;5030336;28;20423;-80
2022/01/21 04:54:30;;;;;;;1.63;1.20;;;;;;;4.74;70.22;94546.63;5029608;28;20176;-80
2022/01/21 04:56:56;;;;;;;1.70;1.60;;;;;;;4.93;69.83;94555.09;5033230;28;20445;-80
2022/01/21 04:59:22;;;;;;;2.10;1.60;;;;;;;5.11;69.35;94562.72;5030486;28;20403;-80
2022/01/21 05:01:47;;;;;;;2.33;2.10;;;;;;;5.18;68.96;94561.06;5030192;28;20238;-79
2022/01/21 05:04:13;;;;;;;1.80;1.70;;;;;;;5.21;68.79;94564.16;5028695;28;20187;-79
2022/01/21 05:06:40;;;;;;;2.50;2.30;;;;;;;5.10;68.85;94569.66;5028038;28;20254;-78
2022/01/21 05:09:06;;;;;;;2.93;2.33;;;;;;;5.46;68.18;94571.91;5029591;28;20212;-78
2022/01/21 05:11:36;;;;;;;2.00;1.90;;;;;;;5.11;68.16;94563.53;5034648;28;20429;-80
2022/01/21 05:14:13;;;;;;;2.13;1.93;;;;;;;5.06;68.06;94568.38;5029947;28;20408;-80
2022/01/21 05:16:45;;;;;;;6.83;1.70;;;;;;;4.67;69.03;94567.22;5029252;28;20392;-80
2022/01/21 05:19:15;;;;;;;2.50;2.30;;;;;;;4.75;69.92;94569.00;5029315;28;20415;-80
2022/01/21 05:21:41;;;;;;;2.77;2.60;;;;;;;4.90;69.47;94584.75;5027571;28;20459;-79
2022/01/21 05:24:07;;;;;;;3.47;3.17;;;;;;;4.86;69.08;94581.66;5027579;28;20501;-79
2022/01/21 05:26:37;;;;;;;3.10;2.77;;;;;;;5.15;68.76;94582.16;5031484;28;20423;-81
2022/01/21 05:29:11;;;;;;;4.70;2.57;;;;;;;5.10;68.42;94582.63;5030452;28;20564;-79
2022/01/21 05:31:37;;;;;;;5.60;2.27;;;;;;;5.05;67.84;94596.09;5029775;28;20797;-79
2022/01/21 05:34:03;;;;;;;2.60;2.40;;;;;;;4.54;68.50;94602.34;5027348;28;20435;-79
2022/01/21 05:36:31;;;;;;;1.03;0.93;;;;;;;4.25;68.97;94608.72;5027925;28;20424;-80
2022/01/21 05:38:59;;;;;;;2.27;1.60;;;;;;;4.28;68.35;94614.38;5030790;28;20433;-80
2022/01/21 05:41:25;;;;;;;2.40;2.20;;;;;;;4.44;68.51;94615.41;5026955;28;20519;-80
2022/01/21 05:44:00;;;;;;;2.10;1.73;;;;;;;4.06;68.55;94628.72;5031369;28;20813;-81
2022/01/21 05:46:44;;;;;;;2.90;2.27;;;;;;;4.26;68.52;94631.88;5028391;28;20434;-80
2022/01/21 05:49:11;;;;;;;3.80;2.30;;;;;;;4.49;67.54;94642.47;5026923;28;20454;-79
2022/01/21 05:51:38;;;;;;;5.13;2.73;;;;;;;4.03;69.55;94641.97;5028876;28;20482;-80
2022/01/21 05:54:04;;;;;;;3.13;2.30;;;;;;;4.50;67.44;94641.50;5028753;28;20419;-79
2022/01/21 05:56:31;;;;;;;5.20;2.77;;;;;;;4.05;69.30;94645.22;5029638;28;20434;-79
2022/01/21 05:58:57;;;;;;;3.33;2.63;;;;;;;4.00;68.92;94662.16;5028090;28;20180;-80
2022/01/21 06:01:22;;;;;;;3.67;2.73;;;;;;;4.44;68.05;94662.88;5027379;28;20439;-78
2022/01/21 06:03:49;;;;;;;4.53;3.60;;;;;;;4.27;68.72;94663.78;5043995;28;20445;-79
2022/01/21 06:06:14;;;;;;;8.00;2.87;;;;;;;4.02;69.83;94671.41;5028900;28;20188;-79
2022/01/21 06:08:40;;;;;;;3.97;3.03;;;;;;;4.67;67.89;94672.69;5027678;28;20465;-79
2022/01/21 06:11:06;;;;;;;3.50;3.07;;;;;;;4.39;68.18;94670.28;5028299;28;20192;-79
2022/01/21 06:13:32;;;;;;;4.97;2.47;;;;;;;4.65;68.03;94672.84;5027466;28;20211;-77
2022/01/21 06:15:59;;;;;;;7.23;3.23;;;;;;;4.43;68.04;94684.56;5027685;28;20563;-78
2022/01/21 06:18:25;;;;;;;2.60;2.40;;;;;;;4.18;68.34;94690.59;5028298;28;20466;-77
2022/01/21 06:20:50;;;;;;;3.47;3.17;;;;;;;3.30;70.62;94694.84;5039113;28;20469;-78
2022/01/21 06:23:16;;;;;;;3.83;2.33;;;;;;;3.79;69.99;94709.91;5030649;28;20414;-78
2022/01/21 06:25:42;;;;;;;8.53;3.07;;;;;;;4.11;67.99;94706.72;5029765;28;20199;-77
2022/01/21 06:28:07;;;;;;;3.90;2.80;;;;;;;3.97;69.04;94707.31;5030029;28;20203;-79
2022/01/21 06:30:34;;;;;;;2.80;2.60;;;;;;;4.34;68.59;94713.97;5029634;28;20253;-77
2022/01/21 06:32:59;;;;;;;9.33;5.17;;;;;;;4.36;67.21;94719.81;5030927;28;20253;-79
2022/01/21 06:35:25;;;;;;;3.90;3.60;;;;;;;3.52;69.12;94726.38;5047954;28;20422;-78
2022/01/21 06:37:50;;;;;;;8.33;6.13;;;;;;;3.38;69.31;94730.31;5047805;28;20201;-77
2022/01/21 06:40:19;;;;;;;22.67;17.93;;;;;;;2.63;70.30;94732.25;5029049;28;20187;-78
2022/01/21 06:42:48;;;;;;;4.17;3.80;;;;;;;2.89;69.32;94733.19;5047330;28;20228;-79
2022/01/21 06:45:14;;;;;;;31.63;21.73;;;;;;;2.86;68.81;94735.25;5047165;28;20426;-78
2022/01/21 06:47:39;;;;;;;9.73;8.60;;;;;;;3.58;67.38;94741.28;5046697;28;20417;-79
2022/01/21 06:50:05;;;;;;;13.80;7.20;;;;;;;3.83;66.17;94751.84;5029698;28;20250;-79
2022/01/21 06:52:32;;;;;;;17.53;9.93;;;;;;;3.03;67.04;94746.59;5046793;28;20195;-79
2022/01/21 06:54:58;;;;;;;12.70;9.07;;;;;;;2.89;68.51;94766.78;5046591;28;20425;-78
2022/01/21 06:57:24;;;;;;;9.13;7.03;;;;;;;3.26;67.50;94759.91;5028839;28;20407;-79
2022/01/21 06:59:50;;;;;;;12.47;8.07;;;;;;;3.01;68.92;94767.41;5046584;28;20505;-79
2022/01/21 07:02:18;;;;;;;8.40;4.73;;;;;;;3.22;68.84;94774.09;5029148;28;20418;-78
2022/01/21 07:04:48;;;;;;;6.30;4.27;;;;;;;3.07;69.14;94779.78;5028717;28;20196;-78
2022/01/21 07:10:35;;;;;;;5.78;4.35;;;;;;;3.29;69.15;94788.88;5026935;28;20427;-78
2022/01/21 07:13:01;;;;;;;7.53;4.17;;;;;;;3.17;68.52;94790.06;5026649;28;20180;-77
2022/01/21 07:15:27;;;;;;;9.67;5.10;;;;;;;3.40;67.94;94795.63;5026021;28;20186;-79
2022/01/21 07:17:53;;;;;;;6.53;5.00;;;;;;;3.31;67.66;94799.09;5008299;28;20207;-78
2022/01/21 07:20:20;;;;;;;4.97;3.83;;;;;;;3.31;67.32;94802.47;5026334;28;20251;-78
2022/01/21 07:22:46;;;;;;;7.00;5.15;;;;;;;3.40;67.02;94805.16;5041143;28;20191;-78
2022/01/21 07:25:13;;;;;;;5.07;4.57;;;;;;;3.46;67.62;94815.72;5045558;28;20261;-80
2022/01/21 07:27:38;;;;;;;5.33;4.57;;;;;;;3.91;66.19;94807.09;5046008;28;20243;-79
2022/01/21 07:30:05;;;;;;;7.20;3.97;;;;;;;3.55;66.65;94814.03;5044785;28;21181;-80
2022/01/21 07:32:30;;;;;;;5.90;2.97;;;;;;;2.90;67.77;94808.94;5045205;28;20597;-80
2022/01/21 07:34:56;;;;;;;3.30;3.00;;;;;;;3.08;68.30;94827.91;5046447;28;20516;-80
2022/01/21 07:37:21;;;;;;;3.00;2.80;;;;;;;3.52;67.17;94829.84;5029550;28;20187;-80
2022/01/21 07:39:47;;;;;;;0.93;0.93;;;;;;;3.02;67.97;94832.88;5044974;28;20187;-78
2022/01/21 07:42:13;;;;;;;4.33;3.93;;;;;;;2.97;67.16;94835.06;5029101;28;20187;-82
2022/01/21 07:44:39;;;;;;;14.00;6.40;;;;;;;2.75;69.37;94831.84;5046593;28;20635;-78
2022/01/21 07:47:05;;;;;;;3.90;3.53;;;;;;;3.30;68.23;94837.06;5028256;28;20200;-79
2022/01/21 07:49:31;;;;;;;7.75;3.95;;;;;;;3.83;65.50;94842.44;5046395;28;20466;-78
2022/01/21 07:51:56;;;;;;;7.50;4.60;;;;;;;4.30;64.93;94834.41;5028595;28;20183;-79
2022/01/21 07:54:22;;;;;;;5.03;3.60;;;;;;;4.50;64.69;94845.41;5046263;28;20451;-79
2022/01/21 07:56:47;;;;;;;5.60;4.93;;;;;;;3.52;65.29;94841.00;5028548;28;20608;-79
2022/01/21 07:59:14;;;;;;;8.17;3.77;;;;;;;4.02;64.01;94847.47;5046483;28;20231;-79
2022/01/21 08:01:41;;;;;;;5.23;4.40;;;;;;;3.86;65.58;94842.16;5046959;28;20183;-80
2022/01/21 08:04:07;;;;;;;12.03;5.53;;;;;;;4.59;63.44;94854.03;5033715;28;20948;-80
2022/01/21 08:06:36;;;;;;;9.00;6.30;;;;;;;4.07;65.15;94860.78;5027799;28;20423;-80
2022/01/21 08:09:37;;;;;;;6.43;5.63;;;;;;;4.47;63.83;94856.06;5005250;28;20489;-80
2022/01/21 08:12:03;;;;;;;5.43;4.93;;;;;;;4.56;62.80;94855.16;4988779;28;20507;-80
2022/01/21 08:14:31;;;;;;;5.67;5.13;;;;;;;4.13;63.77;94864.53;5049204;28;21243;-80
2022/01/21 08:27:11;;;;;;;12.60;5.60;;;;;;;3.28;65.79;94862.25;5027073;28;20458;-77
2022/01/21 08:29:37;;;;;;;12.87;6.30;;;;;;;3.01;65.78;94875.16;5013250;28;20475;-79
2022/01/21 08:32:03;;;;;;;8.87;4.50;;;;;;;3.52;64.20;94879.81;4997079;28;20427;-80
2022/01/21 08:34:29;;;;;;;8.20;4.53;;;;;;;3.70;64.29;94885.03;5015508;28;20205;-87
2022/01/21 08:36:54;;;;;;;7.53;4.40;;;;;;;4.13;62.96;94884.44;5015931;28;20426;-79
2022/01/21 08:39:20;;;;;;;10.13;4.50;;;;;;;4.11;62.45;94880.22;4992225;28;20432;-80
2022/01/21 08:41:45;;;;;;;6.53;4.13;;;;;;;4.05;62.08;94873.06;5009830;28;20268;-79
2022/01/21 08:44:11;;;;;;;3.47;3.17;;;;;;;4.66;60.54;94844.69;4992292;28;20213;-79
2022/01/21 08:46:36;;;;;;;2.90;2.70;;;;;;;4.96;59.21;94845.19;4992275;28;20188;-79
2022/01/21 08:49:07;;;;;;;3.17;2.97;;;;;;;4.53;59.54;94852.06;4992355;28;20651;-79
2022/01/21 08:51:39;;;;;;;4.40;3.20;;;;;;;4.34;60.30;94856.44;5025590;28;20260;-80
2022/01/21 08:54:05;;;;;;;3.80;3.50;;;;;;;4.48;59.67;94868.06;5010482;28;20917;-79
2022/01/21 08:56:30;;;;;;;4.63;2.93;;;;;;;4.89;59.18;94881.28;4992369;28;20424;-80
2022/01/21 08:58:56;;;;;;;6.17;4.33;;;;;;;4.18;61.20;94883.03;5010077;28;20189;-81
2022/01/21 09:01:22;;;;;;;5.70;4.60;;;;;;;4.29;60.86;94884.59;4992883;28;20204;-80
2022/01/21 09:03:48;;;;;;;4.30;3.87;;;;;;;4.52;59.93;94882.34;5010079;28;20420;-79
2022/01/21 09:06:18;;;;;;;3.83;3.40;;;;;;;5.02;58.29;94880.88;5025373;28;20251;-79
2022/01/21 09:08:45;;;;;;;4.43;3.93;;;;;;;5.28;58.00;94876.44;5009794;28;20212;-80
2022/01/21 09:11:13;;;;;;;4.30;3.90;;;;;;;5.52;56.91;94853.34;5009449;28;20476;-80
2022/01/21 09:13:41;;;;;;;5.83;5.23;;;;;;;5.05;57.17;94852.84;5009575;28;20456;-80
2022/01/21 09:16:07;;;;;;;7.87;5.23;;;;;;;5.21;56.71;94854.69;4992307;28;20452;-79
2022/01/21 09:18:45;;;;;;;7.47;6.43;;;;;;;5.67;56.71;94850.00;4988168;28;20495;-79
2022/01/21 09:21:14;;;;;;;6.63;6.00;;;;;;;5.40;57.16;94847.63;4998020;28;20424;-79
2022/01/21 09:23:40;;;;;;;8.80;6.27;;;;;;;5.24;57.72;94838.81;4990919;28;20428;-80
2022/01/21 09:26:08;;;;;;;7.83;6.30;;;;;;;4.97;57.83;94831.22;4991217;28;20475;-81
2022/01/21 09:28:33;;;;;;;4.77;4.30;;;;;;;5.77;55.30;94818.69;4992050;28;20480;-80
2022/01/21 09:30:59;;;;;;;3.90;2.93;;;;;;;6.30;54.31;94808.00;5024563;28;20520;-80
2022/01/21 09:33:24;;;;;;;4.40;3.97;;;;;;;6.47;53.46;94808.78;5008794;28;20185;-79
2022/01/21 09:35:50;;;;;;;4.90;3.80;;;;;;;6.51;52.83;94808.31;5008884;28;20716;-80
2022/01/21 09:38:16;;;;;;;6.97;3.20;;;;;;;5.37;54.61;94806.41;5008564;28;20169;-80
2022/01/21 09:41:18;;;;;;;3.67;3.40;;;;;;;4.91;55.06;94808.53;5023761;28;20211;-81
2022/01/21 09:43:49;;;;;;;4.30;3.20;;;;;;;4.42;56.74;94817.66;4931909;29;20419;-78
2022/01/21 09:46:16;;;;;;;3.43;3.13;;;;;;;4.89;56.06;94819.88;4999179;28;20439;-77
2022/01/21 09:48:54;;;;;;;3.57;3.27;;;;;;;5.16;54.72;94817.22;5009007;28;20451;-79
2022/01/21 09:51:19;;;;;;;4.00;3.43;;;;;;;5.14;54.13;94807.03;5008640;28;20784;-80
2022/01/21 09:53:45;;;;;;;3.70;3.40;;;;;;;4.87;54.24;94801.03;5009078;28;20515;-79
2022/01/21 09:56:14;;;;;;;4.23;2.90;;;;;;;4.59;54.29;94797.84;4990663;28;20185;-81
2022/01/21 09:58:42;;;;;;;4.20;2.80;;;;;;;4.70;54.33;94814.91;4991020;28;20184;-79
2022/01/21 10:01:09;;;;;;;8.40;3.17;;;;;;;5.95;51.60;94796.94;5001276;28;20432;-79
2022/01/21 10:03:35;;;;;;;2.40;1.53;;;;;;;5.82;48.31;94794.81;5005448;28;20792;-79
2022/01/21 10:06:02;;;;;;;3.50;3.20;;;;;;;5.98;49.45;94800.06;5008252;28;20431;-80
2022/01/21 10:08:29;;;;;;;3.47;3.10;;;;;;;6.18;49.19;94790.16;4990463;28;20472;-79
2022/01/21 10:10:54;;;;;;;10.97;9.70;;;;;;;5.78;49.57;94793.53;4991268;28;20435;-81
2022/01/21 10:13:21;;;;;;;14.93;13.53;;;;;;;6.16;49.44;94792.09;5008765;28;20548;-79
2022/01/21 10:15:48;;;;;;;15.43;13.20;;;;;;;6.60;48.08;94783.94;4990593;28;20219;-78
2022/01/21 10:18:15;;;;;;;8.53;7.73;;;;;;;6.59;47.50;94781.50;4998735;28;20500;-79
2022/01/21 10:20:56;;;;;;;13.50;12.27;;;;;;;7.15;47.55;94782.28;5004938;28;20490;-79
2022/01/21 10:23:21;;;;;;;10.97;9.83;;;;;;;5.80;48.56;94781.19;5001586;28;20467;-79
2022/01/21 10:52:49;;;;;;;8.10;7.40;;;;;;;7.30;44.18;94753.72;4925247;29;20427;-79
2022/01/21 11:09:40;;;;;;;4.90;4.43;;;;;;;7.26;44.61;94736.03;5061899;28;20895;-78
2022/01/21 11:18:50;;;;;;;3.10;2.80;;;;;;;5.40;48.07;94725.66;4947138;29;20452;-81
2022/01/21 11:21:45;;;;;;;4.27;3.43;;;;;;;5.30;48.85;94736.19;5043756;28;20444;-83
2022/01/21 11:27:09;;;;;;;3.97;3.67;;;;;;;6.75;46.46;94724.22;5040764;28;20477;-81
2022/01/21 11:29:42;;;;;;;4.20;3.90;;;;;;;6.54;46.73;94726.59;5017935;28;20650;-79
2022/01/21 11:39:24;;;;;;;;;;;;;;;;;;;;;
2022/01/21 11:52:21;;;;;;;8.13;4.60;;;;;;;5.22;47.51;94739.59;4948141;29;20424;-81
2022/01/21 11:55:37;;;;;;;7.00;4.93;;;;;;;6.04;45.63;94742.25;5006878;28;20423;-82
2022/01/21 11:58:25;;;;;;;5.70;3.87;;;;;;;5.16;46.05;94740.22;5025150;28;20469;-79
2022/01/21 12:01:48;;;;;;;5.77;3.87;;;;;;;4.94;46.76;94731.25;5020623;28;20475;-82
2022/01/21 12:04:35;;;;;;;7.43;4.13;;;;;;;5.02;48.32;94727.88;4960634;28;20426;-72
2022/01/21 12:07:01;;;;;;;5.33;4.20;;;;;;;4.69;48.94;94730.34;5045489;28;20433;-75
2022/01/21 12:10:32;;;;;;;5.60;3.50;;;;;;;4.13;50.09;94745.41;5064047;28;20532;-85
2022/01/21 12:14:07;;;;;;;6.73;4.67;;;;;;;3.95;49.18;94724.75;5048638;28;20456;-86
2022/01/21 12:16:57;;;;;;;4.37;3.97;;;;;;;4.34;49.60;94732.09;4937822;29;20443;-83
2022/01/21 12:19:42;;;;;;;7.07;4.93;;;;;;;4.87;49.66;94717.28;5011663;28;20421;-82
2022/01/21 12:22:43;;;;;;;6.00;4.20;;;;;;;4.26;51.25;94724.31;5047015;28;20433;-89
2022/01/21 12:25:35;;;;;;;5.40;4.90;;;;;;;3.68;53.33;94726.50;5026916;28;20513;-82
2022/01/21 12:41:37;;;;;;;7.47;6.10;;;;;;;4.60;51.84;94705.38;4920018;29;20452;-80
2022/01/21 12:47:48;;;;;;;6.03;4.30;;;;;;;3.17;54.77;94691.81;5008791;28;20493;-80
2022/01/21 12:50:30;;;;;;;6.73;5.50;;;;;;;3.38;54.48;94699.25;5025691;28;20977;-81
2022/01/21 13:05:09;;;;;;;4.88;3.92;;;;;;;4.01;51.78;94700.84;4992193;28;20200;-80
2022/01/21 13:08:10;;;;;;;11.27;3.90;;;;;;;3.63;52.61;94710.63;5008338;28;20205;-81
2022/01/21 13:10:37;;;;;;;6.40;4.47;;;;;;;4.32;50.84;94707.34;5044710;28;20236;-80
2022/01/21 13:13:33;;;;;;;12.10;5.70;;;;;;;3.83;51.93;94706.09;5028265;28;20744;-80
2022/01/21 13:16:00;;;;;;;4.70;3.75;;;;;;;4.01;50.86;94721.56;5029015;28;20423;-80
2022/01/21 13:18:32;;;;;;;9.13;5.33;;;;;;;3.97;51.42;94719.44;5027361;28;20224;-80
2022/01/21 13:21:04;;;;;;;10.43;5.97;;;;;;;4.30;51.88;94716.06;5026771;28;20432;-81
2022/01/21 13:23:43;;;;;;;8.77;4.50;;;;;;;4.65;51.02;94714.28;5028653;28;20562;-80
2022/01/21 13:26:11;;;;;;;8.30;5.83;;;;;;;4.24;51.84;94721.06;5060605;28;20473;-81
2022/01/21 13:29:13;;;;;;;5.87;4.83;;;;;;;3.60;52.86;94718.66;5042880;28;20455;-80
2022/01/21 13:32:27;;;;;;;7.27;5.13;;;;;;;3.90;53.69;94729.56;4953683;28;20445;-80
2022/01/21 13:35:13;;;;;;;12.23;6.50;;;;;;;4.54;52.01;94717.16;4907713;29;20546;-80
2022/01/21 13:38:07;;;;;;;7.33;4.60;;;;;;;3.33;52.72;94711.81;4900990;29;20444;-80
2022/01/21 13:41:13;;;;;;;3.63;2.77;;;;;;;3.31;52.46;94729.25;4976009;28;20475;-80
2022/01/21 13:43:49;;;;;;;8.70;4.00;;;;;;;4.06;51.68;94737.47;5012968;28;20438;-78
2022/01/21 13:46:17;;;;;;;12.77;3.47;;;;;;;3.97;50.95;94737.56;5016966;28;20212;-80
2022/01/21 13:52:12;;;;;;;4.30;3.70;;;;;;;3.95;49.98;94722.19;5020699;28;20263;-79
2022/01/21 14:35:30;;;;;;;4.13;3.80;;;;;;;3.32;50.49;94710.22;4974897;28;20222;-79
2022/01/21 14:38:18;;;;;;;8.10;3.97;;;;;;;3.15;52.07;94709.25;4932996;28;20479;-79
2022/01/21 14:47:45;;;;;;;5.50;4.47;;;;;;;2.63;52.90;94698.66;4977170;28;20707;-74
2022/01/21 14:50:50;;;;;;;7.13;4.03;;;;;;;3.02;51.67;94701.03;4962984;28;20311;-79
2022/01/21 14:56:41;;;;;;;2.60;1.73;;;;;;;2.83;49.94;94715.69;4979477;28;20184;-77
2022/01/21 14:59:15;;;;;;;3.53;3.25;;;;;;;2.98;50.42;94710.84;5026823;28;20237;-77
2022/01/21 15:02:04;;;;;;;4.15;3.60;;;;;;;3.46;49.01;94714.03;5008326;28;20196;-78
2022/01/21 15:04:38;;;;;;;3.40;2.95;;;;;;;2.65;50.46;94715.66;5020917;28;20195;-78
2022/01/21 15:07:23;;;;;;;2.85;2.67;;;;;;;2.64;51.33;94714.03;5008642;28;20206;-77
2022/01/21 15:09:51;;;;;;;3.75;3.38;;;;;;;2.70;49.66;94716.03;5024337;28;20202;-77
2022/01/21 15:15:35;;;;;;;4.50;3.22;;;;;;;2.98;49.72;94717.78;5018681;28;20190;-77
2022/01/21 15:18:30;;;;;;;6.10;4.20;;;;;;;3.05;49.36;94711.88;5002924;28;20197;-76
2022/01/21 15:21:38;;;;;;;7.00;4.50;;;;;;;2.66;50.91;94716.47;5010406;28;20446;-77
2022/01/21 15:24:04;;;;;;;6.47;5.15;;;;;;;2.84;51.04;94713.91;4945896;29;20199;-78
2022/01/21 15:26:36;;;;;;;8.80;4.57;;;;;;;2.82;50.59;94716.63;4945601;29;20203;-75
2022/01/21 15:29:05;;;;;;;6.95;5.57;;;;;;;2.64;51.31;94719.19;4980640;28;20223;-77
2022/01/21 15:31:30;;;;;;;9.57;5.32;;;;;;;2.66;51.23;94713.91;5027668;28;20192;-77
2022/01/21 15:34:44;;;;;;;4.00;3.70;;;;;;;2.48;51.41;94724.97;5004903;28;20733;-75